sensor_id;sensor_type;location;lat;lon;timestamp;P1;durP1;ratioP1;P2;durP2;ratioP2
7104;SDS011;3594;42.152;24.714;2023-07-31T00:00:11;4.78;;;2.30;;
7104;SDS011;3594;42.152;24.714;2023-07-31T00:02:37;6.68;;;2.60;;
7104;SDS011;3594;42.152;24.714;2023-07-31T00:05:03;3.33;;;2.00;;
7104;SDS011;3594;42.152;24.714;2023-07-31T00:07:28;6.00;;;2.20;;
7104;SDS011;3594;42.152;24.714;2023-07-31T00:09:54;2.38;;;1.95;;
7104;SDS011;3594;42.152;24.714;2023-07-31T00:12:21;2.22;;;1.70;;
7104;SDS011;3594;42.152;24.714;2023-07-31T00:14:47;3.13;;;2.10;;
7104;SDS011;3594;42.152;24.714;2023-07-31T00:17:12;1.92;;;1.73;;
7104;SDS011;3594;42.152;24.714;2023-07-31T00:19:37;3.03;;;1.90;;
7104;SDS011;3594;42.152;24.714;2023-07-31T00:22:03;2.40;;;1.73;;
7104;SDS011;3594;42.152;24.714;2023-07-31T00:24:28;2.42;;;1.85;;
7104;SDS011;3594;42.152;24.714;2023-07-31T00:26:54;2.25;;;1.90;;
7104;SDS011;3594;42.152;24.714;2023-07-31T00:29:19;2.15;;;1.50;;
7104;SDS011;3594;42.152;24.714;2023-07-31T00:31:45;2.60;;;1.63;;
7104;SDS011;3594;42.152;24.714;2023-07-31T00:34:10;1.95;;;1.60;;
7104;SDS011;3594;42.152;24.714;2023-07-31T00:36:35;3.03;;;1.73;;
7104;SDS011;3594;42.152;24.714;2023-07-31T00:39:01;2.75;;;1.70;;
7104;SDS011;3594;42.152;24.714;2023-07-31T00:41:26;2.63;;;1.83;;
7104;SDS011;3594;42.152;24.714;2023-07-31T00:43:52;2.70;;;1.67;;
7104;SDS011;3594;42.152;24.714;2023-07-31T00:46:17;2.67;;;1.83;;
7104;SDS011;3594;42.152;24.714;2023-07-31T00:48:42;2.30;;;1.70;;
7104;SDS011;3594;42.152;24.714;2023-07-31T00:51:08;2.30;;;1.63;;
7104;SDS011;3594;42.152;24.714;2023-07-31T00:53:35;1.98;;;1.63;;
7104;SDS011;3594;42.152;24.714;2023-07-31T00:56:01;2.08;;;1.70;;
7104;SDS011;3594;42.152;24.714;2023-07-31T00:58:27;2.00;;;1.50;;
7104;SDS011;3594;42.152;24.714;2023-07-31T01:00:52;3.88;;;1.83;;
7104;SDS011;3594;42.152;24.714;2023-07-31T01:03:18;3.38;;;1.75;;
7104;SDS011;3594;42.152;24.714;2023-07-31T01:05:49;2.13;;;1.70;;
7104;SDS011;3594;42.152;24.714;2023-07-31T01:11:20;2.45;;;2.03;;
7104;SDS011;3594;42.152;24.714;2023-07-31T01:13:54;1.70;;;1.40;;
7104;SDS011;3594;42.152;24.714;2023-07-31T01:16:20;2.92;;;1.90;;
7104;SDS011;3594;42.152;24.714;2023-07-31T01:18:46;2.22;;;1.73;;
7104;SDS011;3594;42.152;24.714;2023-07-31T01:21:35;2.88;;;1.80;;
7104;SDS011;3594;42.152;24.714;2023-07-31T01:27:19;3.45;;;2.53;;
7104;SDS011;3594;42.152;24.714;2023-07-31T01:30:03;5.15;;;2.88;;
7104;SDS011;3594;42.152;24.714;2023-07-31T01:32:35;5.15;;;2.67;;
7104;SDS011;3594;42.152;24.714;2023-07-31T01:35:05;5.35;;;3.10;;
7104;SDS011;3594;42.152;24.714;2023-07-31T01:37:31;4.05;;;3.28;;
7104;SDS011;3594;42.152;24.714;2023-07-31T01:39:56;6.63;;;2.97;;
7104;SDS011;3594;42.152;24.714;2023-07-31T01:42:22;6.95;;;3.92;;
7104;SDS011;3594;42.152;24.714;2023-07-31T01:44:47;10.32;;;4.25;;
7104;SDS011;3594;42.152;24.714;2023-07-31T01:47:13;9.45;;;4.97;;
7104;SDS011;3594;42.152;24.714;2023-07-31T01:49:38;10.50;;;5.43;;
7104;SDS011;3594;42.152;24.714;2023-07-31T01:52:03;11.38;;;5.07;;
7104;SDS011;3594;42.152;24.714;2023-07-31T01:54:29;7.35;;;4.40;;
7104;SDS011;3594;42.152;24.714;2023-07-31T01:56:55;9.13;;;4.75;;
7104;SDS011;3594;42.152;24.714;2023-07-31T01:59:20;12.13;;;5.95;;
7104;SDS011;3594;42.152;24.714;2023-07-31T02:01:46;16.40;;;7.63;;
7104;SDS011;3594;42.152;24.714;2023-07-31T02:04:11;19.38;;;10.48;;
7104;SDS011;3594;42.152;24.714;2023-07-31T02:06:37;28.20;;;14.45;;
7104;SDS011;3594;42.152;24.714;2023-07-31T02:09:03;25.80;;;13.63;;
7104;SDS011;3594;42.152;24.714;2023-07-31T02:11:28;22.20;;;10.65;;
7104;SDS011;3594;42.152;24.714;2023-07-31T02:13:53;17.17;;;9.63;;
7104;SDS011;3594;42.152;24.714;2023-07-31T02:16:19;23.27;;;11.35;;
7104;SDS011;3594;42.152;24.714;2023-07-31T02:18:44;14.25;;;8.30;;
7104;SDS011;3594;42.152;24.714;2023-07-31T02:21:10;13.35;;;7.32;;
7104;SDS011;3594;42.152;24.714;2023-07-31T02:23:35;13.35;;;7.10;;
7104;SDS011;3594;42.152;24.714;2023-07-31T02:26:00;11.23;;;5.18;;
7104;SDS011;3594;42.152;24.714;2023-07-31T02:28:26;8.73;;;4.82;;
7104;SDS011;3594;42.152;24.714;2023-07-31T02:30:51;7.20;;;3.85;;
7104;SDS011;3594;42.152;24.714;2023-07-31T02:33:17;6.55;;;3.60;;
7104;SDS011;3594;42.152;24.714;2023-07-31T02:35:42;6.97;;;3.50;;
7104;SDS011;3594;42.152;24.714;2023-07-31T02:38:08;8.65;;;4.25;;
7104;SDS011;3594;42.152;24.714;2023-07-31T02:40:33;5.82;;;3.92;;
7104;SDS011;3594;42.152;24.714;2023-07-31T02:42:59;7.28;;;4.43;;
7104;SDS011;3594;42.152;24.714;2023-07-31T02:45:24;5.30;;;3.70;;
7104;SDS011;3594;42.152;24.714;2023-07-31T02:47:49;7.10;;;3.75;;
7104;SDS011;3594;42.152;24.714;2023-07-31T02:50:15;8.27;;;4.00;;
7104;SDS011;3594;42.152;24.714;2023-07-31T02:52:40;5.63;;;3.63;;
7104;SDS011;3594;42.152;24.714;2023-07-31T02:55:06;5.82;;;3.63;;
7104;SDS011;3594;42.152;24.714;2023-07-31T02:57:31;9.38;;;3.83;;
7104;SDS011;3594;42.152;24.714;2023-07-31T02:59:57;8.15;;;3.65;;
7104;SDS011;3594;42.152;24.714;2023-07-31T03:02:22;7.15;;;3.72;;
7104;SDS011;3594;42.152;24.714;2023-07-31T03:04:48;6.38;;;3.75;;
7104;SDS011;3594;42.152;24.714;2023-07-31T03:07:13;6.68;;;3.50;;
7104;SDS011;3594;42.152;24.714;2023-07-31T03:09:38;6.30;;;3.67;;
7104;SDS011;3594;42.152;24.714;2023-07-31T03:12:04;5.45;;;3.22;;
7104;SDS011;3594;42.152;24.714;2023-07-31T03:14:29;6.03;;;4.28;;
7104;SDS011;3594;42.152;24.714;2023-07-31T03:16:55;6.85;;;3.70;;
7104;SDS011;3594;42.152;24.714;2023-07-31T03:19:20;7.78;;;4.55;;
7104;SDS011;3594;42.152;24.714;2023-07-31T03:21:46;9.32;;;5.00;;
7104;SDS011;3594;42.152;24.714;2023-07-31T03:24:11;6.63;;;4.30;;
7104;SDS011;3594;42.152;24.714;2023-07-31T03:26:37;12.73;;;5.05;;
7104;SDS011;3594;42.152;24.714;2023-07-31T03:29:03;10.48;;;5.28;;
7104;SDS011;3594;42.152;24.714;2023-07-31T03:31:29;8.75;;;5.30;;
7104;SDS011;3594;42.152;24.714;2023-07-31T03:33:54;11.75;;;5.25;;
7104;SDS011;3594;42.152;24.714;2023-07-31T03:36:19;8.27;;;5.07;;
7104;SDS011;3594;42.152;24.714;2023-07-31T03:38:46;9.38;;;5.35;;
7104;SDS011;3594;42.152;24.714;2023-07-31T03:41:11;10.52;;;5.30;;
7104;SDS011;3594;42.152;24.714;2023-07-31T03:43:37;9.65;;;5.53;;
7104;SDS011;3594;42.152;24.714;2023-07-31T03:46:02;8.57;;;5.28;;
7104;SDS011;3594;42.152;24.714;2023-07-31T03:48:28;8.20;;;5.43;;
7104;SDS011;3594;42.152;24.714;2023-07-31T03:50:53;8.40;;;4.97;;
7104;SDS011;3594;42.152;24.714;2023-07-31T03:53:19;6.90;;;4.63;;
7104;SDS011;3594;42.152;24.714;2023-07-31T03:55:44;9.80;;;5.25;;
7104;SDS011;3594;42.152;24.714;2023-07-31T03:58:09;7.95;;;5.00;;
7104;SDS011;3594;42.152;24.714;2023-07-31T04:00:35;8.35;;;5.22;;
7104;SDS011;3594;42.152;24.714;2023-07-31T04:03:00;9.05;;;5.00;;
7104;SDS011;3594;42.152;24.714;2023-07-31T04:05:26;7.78;;;5.13;;
7104;SDS011;3594;42.152;24.714;2023-07-31T04:07:52;9.00;;;4.93;;
7104;SDS011;3594;42.152;24.714;2023-07-31T04:10:17;6.80;;;4.72;;
7104;SDS011;3594;42.152;24.714;2023-07-31T04:12:43;8.05;;;4.85;;
7104;SDS011;3594;42.152;24.714;2023-07-31T04:15:08;7.47;;;4.88;;
7104;SDS011;3594;42.152;24.714;2023-07-31T04:17:34;7.18;;;4.90;;
7104;SDS011;3594;42.152;24.714;2023-07-31T04:19:59;7.18;;;4.60;;
7104;SDS011;3594;42.152;24.714;2023-07-31T04:22:25;8.63;;;4.80;;
7104;SDS011;3594;42.152;24.714;2023-07-31T04:24:50;8.57;;;4.78;;
7104;SDS011;3594;42.152;24.714;2023-07-31T04:27:15;6.65;;;4.65;;
7104;SDS011;3594;42.152;24.714;2023-07-31T04:29:41;7.00;;;4.30;;
7104;SDS011;3594;42.152;24.714;2023-07-31T04:32:07;6.30;;;4.15;;
7104;SDS011;3594;42.152;24.714;2023-07-31T04:34:33;5.93;;;3.90;;
7104;SDS011;3594;42.152;24.714;2023-07-31T04:36:58;6.18;;;3.80;;
7104;SDS011;3594;42.152;24.714;2023-07-31T04:39:24;6.18;;;4.30;;
7104;SDS011;3594;42.152;24.714;2023-07-31T04:41:49;6.28;;;4.07;;
7104;SDS011;3594;42.152;24.714;2023-07-31T04:44:14;5.53;;;4.43;;
7104;SDS011;3594;42.152;24.714;2023-07-31T04:46:40;6.65;;;3.97;;
7104;SDS011;3594;42.152;24.714;2023-07-31T04:49:05;5.82;;;4.35;;
7104;SDS011;3594;42.152;24.714;2023-07-31T04:51:30;6.13;;;4.20;;
7104;SDS011;3594;42.152;24.714;2023-07-31T04:53:56;8.65;;;4.10;;
7104;SDS011;3594;42.152;24.714;2023-07-31T04:56:22;5.32;;;3.83;;
7104;SDS011;3594;42.152;24.714;2023-07-31T04:58:47;7.60;;;4.35;;
7104;SDS011;3594;42.152;24.714;2023-07-31T05:01:12;6.25;;;4.28;;
7104;SDS011;3594;42.152;24.714;2023-07-31T05:03:38;6.25;;;4.15;;
7104;SDS011;3594;42.152;24.714;2023-07-31T05:06:03;6.88;;;4.30;;
7104;SDS011;3594;42.152;24.714;2023-07-31T05:08:28;5.80;;;4.13;;
7104;SDS011;3594;42.152;24.714;2023-07-31T05:10:54;6.20;;;3.85;;
7104;SDS011;3594;42.152;24.714;2023-07-31T05:13:19;6.78;;;4.68;;
7104;SDS011;3594;42.152;24.714;2023-07-31T05:15:45;7.07;;;3.83;;
7104;SDS011;3594;42.152;24.714;2023-07-31T05:18:10;9.43;;;4.55;;
7104;SDS011;3594;42.152;24.714;2023-07-31T05:20:36;7.88;;;4.10;;
7104;SDS011;3594;42.152;24.714;2023-07-31T05:23:01;7.50;;;4.13;;
7104;SDS011;3594;42.152;24.714;2023-07-31T05:25:26;5.85;;;3.80;;
7104;SDS011;3594;42.152;24.714;2023-07-31T05:27:53;7.35;;;4.10;;
7104;SDS011;3594;42.152;24.714;2023-07-31T05:30:19;5.45;;;4.10;;
7104;SDS011;3594;42.152;24.714;2023-07-31T05:32:44;6.00;;;3.55;;
7104;SDS011;3594;42.152;24.714;2023-07-31T05:35:10;6.25;;;4.20;;
7104;SDS011;3594;42.152;24.714;2023-07-31T05:37:35;5.78;;;4.00;;
7104;SDS011;3594;42.152;24.714;2023-07-31T05:40:00;5.72;;;4.03;;
7104;SDS011;3594;42.152;24.714;2023-07-31T05:42:26;6.28;;;3.65;;
7104;SDS011;3594;42.152;24.714;2023-07-31T05:44:51;4.97;;;3.58;;
7104;SDS011;3594;42.152;24.714;2023-07-31T05:47:17;7.25;;;4.22;;
7104;SDS011;3594;42.152;24.714;2023-07-31T05:49:42;5.95;;;4.18;;
7104;SDS011;3594;42.152;24.714;2023-07-31T05:52:09;7.63;;;4.30;;
7104;SDS011;3594;42.152;24.714;2023-07-31T05:54:34;5.57;;;3.88;;
7104;SDS011;3594;42.152;24.714;2023-07-31T05:57:00;7.38;;;4.50;;
7104;SDS011;3594;42.152;24.714;2023-07-31T05:59:25;9.48;;;4.28;;
7104;SDS011;3594;42.152;24.714;2023-07-31T06:01:51;8.85;;;4.93;;
7104;SDS011;3594;42.152;24.714;2023-07-31T06:04:16;6.32;;;4.68;;
7104;SDS011;3594;42.152;24.714;2023-07-31T06:06:41;6.80;;;4.90;;
7104;SDS011;3594;42.152;24.714;2023-07-31T06:09:07;8.43;;;4.30;;
7104;SDS011;3594;42.152;24.714;2023-07-31T06:11:32;6.68;;;4.30;;
7104;SDS011;3594;42.152;24.714;2023-07-31T06:13:58;6.32;;;4.63;;
7104;SDS011;3594;42.152;24.714;2023-07-31T06:16:24;7.40;;;4.55;;
7104;SDS011;3594;42.152;24.714;2023-07-31T06:18:50;8.90;;;5.30;;
7104;SDS011;3594;42.152;24.714;2023-07-31T06:21:15;9.40;;;5.45;;
7104;SDS011;3594;42.152;24.714;2023-07-31T06:23:40;9.63;;;5.35;;
7104;SDS011;3594;42.152;24.714;2023-07-31T06:26:06;8.25;;;5.28;;
7104;SDS011;3594;42.152;24.714;2023-07-31T06:28:31;8.82;;;6.07;;
7104;SDS011;3594;42.152;24.714;2023-07-31T06:30:57;9.40;;;5.75;;
7104;SDS011;3594;42.152;24.714;2023-07-31T06:33:23;10.07;;;6.68;;
7104;SDS011;3594;42.152;24.714;2023-07-31T06:35:49;8.93;;;5.50;;
7104;SDS011;3594;42.152;24.714;2023-07-31T06:38:15;8.88;;;5.90;;
7104;SDS011;3594;42.152;24.714;2023-07-31T06:40:40;7.10;;;5.45;;
7104;SDS011;3594;42.152;24.714;2023-07-31T06:43:06;9.07;;;5.97;;
7104;SDS011;3594;42.152;24.714;2023-07-31T06:45:36;8.65;;;5.78;;
7104;SDS011;3594;42.152;24.714;2023-07-31T06:48:03;10.02;;;5.95;;
7104;SDS011;3594;42.152;24.714;2023-07-31T06:50:29;9.25;;;5.93;;
7104;SDS011;3594;42.152;24.714;2023-07-31T06:52:55;10.20;;;5.82;;
7104;SDS011;3594;42.152;24.714;2023-07-31T06:55:21;9.35;;;5.78;;
7104;SDS011;3594;42.152;24.714;2023-07-31T06:57:47;10.80;;;6.60;;
7104;SDS011;3594;42.152;24.714;2023-07-31T07:00:14;10.00;;;6.68;;
7104;SDS011;3594;42.152;24.714;2023-07-31T07:02:39;8.90;;;6.32;;
7104;SDS011;3594;42.152;24.714;2023-07-31T07:05:05;10.07;;;6.60;;
7104;SDS011;3594;42.152;24.714;2023-07-31T07:07:31;9.82;;;6.40;;
7104;SDS011;3594;42.152;24.714;2023-07-31T07:09:57;10.27;;;6.85;;
7104;SDS011;3594;42.152;24.714;2023-07-31T07:12:24;9.95;;;6.72;;
7104;SDS011;3594;42.152;24.714;2023-07-31T07:14:50;10.65;;;6.38;;
7104;SDS011;3594;42.152;24.714;2023-07-31T07:17:18;12.68;;;6.97;;
7104;SDS011;3594;42.152;24.714;2023-07-31T07:19:43;10.30;;;6.85;;
7104;SDS011;3594;42.152;24.714;2023-07-31T07:22:10;11.00;;;7.47;;
7104;SDS011;3594;42.152;24.714;2023-07-31T07:24:36;10.25;;;6.38;;
7104;SDS011;3594;42.152;24.714;2023-07-31T07:27:01;12.23;;;7.35;;
7104;SDS011;3594;42.152;24.714;2023-07-31T07:29:27;13.27;;;7.72;;
7104;SDS011;3594;42.152;24.714;2023-07-31T07:31:52;11.23;;;7.05;;
7104;SDS011;3594;42.152;24.714;2023-07-31T07:34:18;10.30;;;6.82;;
7104;SDS011;3594;42.152;24.714;2023-07-31T07:36:43;12.18;;;7.32;;
7104;SDS011;3594;42.152;24.714;2023-07-31T07:39:10;11.77;;;7.63;;
7104;SDS011;3594;42.152;24.714;2023-07-31T07:41:36;9.50;;;6.28;;
7104;SDS011;3594;42.152;24.714;2023-07-31T07:44:01;10.20;;;6.35;;
7104;SDS011;3594;42.152;24.714;2023-07-31T07:46:27;10.63;;;6.70;;
7104;SDS011;3594;42.152;24.714;2023-07-31T07:48:52;11.15;;;6.82;;
7104;SDS011;3594;42.152;24.714;2023-07-31T07:51:18;9.98;;;6.03;;
7104;SDS011;3594;42.152;24.714;2023-07-31T07:53:43;9.77;;;6.90;;
7104;SDS011;3594;42.152;24.714;2023-07-31T07:56:08;11.20;;;6.93;;
7104;SDS011;3594;42.152;24.714;2023-07-31T07:58:34;15.35;;;8.25;;
7104;SDS011;3594;42.152;24.714;2023-07-31T08:00:59;12.90;;;7.38;;
7104;SDS011;3594;42.152;24.714;2023-07-31T08:03:24;9.43;;;6.22;;
7104;SDS011;3594;42.152;24.714;2023-07-31T08:05:50;8.77;;;6.15;;
7104;SDS011;3594;42.152;24.714;2023-07-31T08:08:15;10.35;;;6.38;;
7104;SDS011;3594;42.152;24.714;2023-07-31T08:10:41;12.25;;;6.45;;
7104;SDS011;3594;42.152;24.714;2023-07-31T08:13:08;9.02;;;6.45;;
7104;SDS011;3594;42.152;24.714;2023-07-31T08:15:34;10.43;;;6.75;;
7104;SDS011;3594;42.152;24.714;2023-07-31T08:18:00;9.90;;;6.60;;
7104;SDS011;3594;42.152;24.714;2023-07-31T08:20:26;11.07;;;6.80;;
7104;SDS011;3594;42.152;24.714;2023-07-31T08:22:51;8.50;;;6.22;;
7104;SDS011;3594;42.152;24.714;2023-07-31T08:25:18;9.25;;;6.35;;
7104;SDS011;3594;42.152;24.714;2023-07-31T08:27:43;11.52;;;6.95;;
7104;SDS011;3594;42.152;24.714;2023-07-31T08:30:09;9.20;;;6.05;;
7104;SDS011;3594;42.152;24.714;2023-07-31T08:32:36;12.93;;;7.40;;
7104;SDS011;3594;42.152;24.714;2023-07-31T08:35:01;10.93;;;7.15;;
7104;SDS011;3594;42.152;24.714;2023-07-31T08:37:27;11.98;;;7.05;;
7104;SDS011;3594;42.152;24.714;2023-07-31T08:39:53;9.73;;;6.70;;
7104;SDS011;3594;42.152;24.714;2023-07-31T08:42:19;11.88;;;7.32;;
7104;SDS011;3594;42.152;24.714;2023-07-31T08:44:45;11.20;;;7.13;;
7104;SDS011;3594;42.152;24.714;2023-07-31T08:47:11;11.30;;;7.30;;
7104;SDS011;3594;42.152;24.714;2023-07-31T08:49:37;12.13;;;7.25;;
7104;SDS011;3594;42.152;24.714;2023-07-31T08:52:05;10.10;;;6.68;;
7104;SDS011;3594;42.152;24.714;2023-07-31T08:54:31;11.75;;;7.20;;
7104;SDS011;3594;42.152;24.714;2023-07-31T08:56:58;10.10;;;6.88;;
7104;SDS011;3594;42.152;24.714;2023-07-31T08:59:25;11.13;;;7.47;;
7104;SDS011;3594;42.152;24.714;2023-07-31T09:01:54;11.20;;;7.65;;
7104;SDS011;3594;42.152;24.714;2023-07-31T09:04:22;11.13;;;7.20;;
7104;SDS011;3594;42.152;24.714;2023-07-31T09:06:48;10.50;;;6.43;;
7104;SDS011;3594;42.152;24.714;2023-07-31T09:09:14;9.55;;;6.40;;
7104;SDS011;3594;42.152;24.714;2023-07-31T09:11:40;11.02;;;6.28;;
7104;SDS011;3594;42.152;24.714;2023-07-31T09:14:05;10.38;;;7.03;;
7104;SDS011;3594;42.152;24.714;2023-07-31T09:16:34;9.27;;;6.53;;
7104;SDS011;3594;42.152;24.714;2023-07-31T09:18:59;10.15;;;6.72;;
7104;SDS011;3594;42.152;24.714;2023-07-31T09:21:27;10.60;;;6.80;;
7104;SDS011;3594;42.152;24.714;2023-07-31T09:23:53;12.43;;;7.40;;
7104;SDS011;3594;42.152;24.714;2023-07-31T09:26:35;11.10;;;6.68;;
7104;SDS011;3594;42.152;24.714;2023-07-31T09:29:05;11.75;;;7.13;;
7104;SDS011;3594;42.152;24.714;2023-07-31T09:31:42;11.90;;;6.35;;
7104;SDS011;3594;42.152;24.714;2023-07-31T09:34:08;9.95;;;6.03;;
7104;SDS011;3594;42.152;24.714;2023-07-31T09:39:09;10.35;;;6.60;;
7104;SDS011;3594;42.152;24.714;2023-07-31T09:41:36;11.18;;;6.60;;
7104;SDS011;3594;42.152;24.714;2023-07-31T09:44:05;8.55;;;6.32;;
7104;SDS011;3594;42.152;24.714;2023-07-31T09:46:30;8.82;;;6.60;;
7104;SDS011;3594;42.152;24.714;2023-07-31T09:49:08;9.15;;;5.93;;
7104;SDS011;3594;42.152;24.714;2023-07-31T09:51:38;8.68;;;5.97;;
7104;SDS011;3594;42.152;24.714;2023-07-31T09:54:12;8.75;;;5.68;;
7104;SDS011;3594;42.152;24.714;2023-07-31T09:56:48;8.93;;;6.10;;
7104;SDS011;3594;42.152;24.714;2023-07-31T09:59:15;10.60;;;6.32;;
7104;SDS011;3594;42.152;24.714;2023-07-31T10:01:42;9.80;;;6.50;;
7104;SDS011;3594;42.152;24.714;2023-07-31T10:04:09;9.57;;;6.47;;
7104;SDS011;3594;42.152;24.714;2023-07-31T10:06:35;9.98;;;6.00;;
7104;SDS011;3594;42.152;24.714;2023-07-31T10:09:02;8.88;;;5.95;;
7104;SDS011;3594;42.152;24.714;2023-07-31T10:11:38;9.93;;;6.00;;
7104;SDS011;3594;42.152;24.714;2023-07-31T10:14:15;8.90;;;5.75;;
7104;SDS011;3594;42.152;24.714;2023-07-31T10:16:45;9.05;;;5.80;;
7104;SDS011;3594;42.152;24.714;2023-07-31T10:19:12;9.00;;;5.95;;
7104;SDS011;3594;42.152;24.714;2023-07-31T10:21:37;7.75;;;5.60;;
7104;SDS011;3594;42.152;24.714;2023-07-31T10:24:04;10.00;;;6.05;;
7104;SDS011;3594;42.152;24.714;2023-07-31T10:26:30;10.27;;;6.63;;
7104;SDS011;3594;42.152;24.714;2023-07-31T10:28:58;8.25;;;5.97;;
7104;SDS011;3594;42.152;24.714;2023-07-31T10:31:24;9.25;;;6.03;;
7104;SDS011;3594;42.152;24.714;2023-07-31T10:33:50;9.32;;;6.30;;
7104;SDS011;3594;42.152;24.714;2023-07-31T10:36:18;10.90;;;6.63;;
7104;SDS011;3594;42.152;24.714;2023-07-31T10:38:44;8.75;;;6.15;;
7104;SDS011;3594;42.152;24.714;2023-07-31T10:41:11;8.38;;;5.90;;
7104;SDS011;3594;42.152;24.714;2023-07-31T10:43:37;9.02;;;5.93;;
7104;SDS011;3594;42.152;24.714;2023-07-31T10:46:06;7.43;;;4.90;;
7104;SDS011;3594;42.152;24.714;2023-07-31T10:48:34;7.65;;;5.60;;
7104;SDS011;3594;42.152;24.714;2023-07-31T10:51:02;9.85;;;5.65;;
7104;SDS011;3594;42.152;24.714;2023-07-31T10:53:35;8.68;;;5.75;;
7104;SDS011;3594;42.152;24.714;2023-07-31T10:56:04;7.95;;;5.43;;
7104;SDS011;3594;42.152;24.714;2023-07-31T10:58:31;8.90;;;5.60;;
7104;SDS011;3594;42.152;24.714;2023-07-31T11:01:01;7.40;;;4.78;;
7104;SDS011;3594;42.152;24.714;2023-07-31T11:03:45;7.03;;;5.00;;
7104;SDS011;3594;42.152;24.714;2023-07-31T11:06:12;7.70;;;4.95;;
7104;SDS011;3594;42.152;24.714;2023-07-31T11:08:42;8.15;;;4.90;;
7104;SDS011;3594;42.152;24.714;2023-07-31T11:11:12;6.32;;;4.75;;
7104;SDS011;3594;42.152;24.714;2023-07-31T11:13:40;9.43;;;6.28;;
7104;SDS011;3594;42.152;24.714;2023-07-31T11:16:07;8.93;;;6.32;;
7104;SDS011;3594;42.152;24.714;2023-07-31T11:18:34;7.55;;;5.50;;
7104;SDS011;3594;42.152;24.714;2023-07-31T11:20:59;7.30;;;5.00;;
7104;SDS011;3594;42.152;24.714;2023-07-31T11:23:25;7.13;;;5.10;;
7104;SDS011;3594;42.152;24.714;2023-07-31T11:28:20;7.32;;;5.20;;
7104;SDS011;3594;42.152;24.714;2023-07-31T11:30:45;7.07;;;5.07;;
7104;SDS011;3594;42.152;24.714;2023-07-31T11:33:11;6.07;;;4.72;;
7104;SDS011;3594;42.152;24.714;2023-07-31T11:38:10;7.07;;;5.05;;
7104;SDS011;3594;42.152;24.714;2023-07-31T11:40:43;8.00;;;5.68;;
7104;SDS011;3594;42.152;24.714;2023-07-31T11:43:09;11.32;;;5.60;;
7104;SDS011;3594;42.152;24.714;2023-07-31T11:45:36;7.32;;;4.85;;
7104;SDS011;3594;42.152;24.714;2023-07-31T11:48:02;6.80;;;4.80;;
7104;SDS011;3594;42.152;24.714;2023-07-31T11:50:28;8.05;;;4.97;;
7104;SDS011;3594;42.152;24.714;2023-07-31T11:52:57;7.55;;;5.25;;
7104;SDS011;3594;42.152;24.714;2023-07-31T11:55:24;8.30;;;5.10;;
7104;SDS011;3594;42.152;24.714;2023-07-31T11:57:51;6.72;;;5.05;;
7104;SDS011;3594;42.152;24.714;2023-07-31T12:00:18;8.05;;;5.20;;
7104;SDS011;3594;42.152;24.714;2023-07-31T12:02:44;8.13;;;5.50;;
7104;SDS011;3594;42.152;24.714;2023-07-31T12:05:10;8.45;;;5.88;;
7104;SDS011;3594;42.152;24.714;2023-07-31T12:07:47;8.77;;;5.38;;
7104;SDS011;3594;42.152;24.714;2023-07-31T12:13:06;9.18;;;6.13;;
7104;SDS011;3594;42.152;24.714;2023-07-31T12:15:37;8.32;;;5.50;;
7104;SDS011;3594;42.152;24.714;2023-07-31T12:18:05;8.02;;;5.60;;
7104;SDS011;3594;42.152;24.714;2023-07-31T12:20:32;10.15;;;5.90;;
7104;SDS011;3594;42.152;24.714;2023-07-31T12:22:57;7.60;;;4.93;;
7104;SDS011;3594;42.152;24.714;2023-07-31T12:25:28;9.93;;;5.47;;
7104;SDS011;3594;42.152;24.714;2023-07-31T12:27:57;6.97;;;4.80;;
7104;SDS011;3594;42.152;24.714;2023-07-31T12:30:33;7.60;;;5.07;;
7104;SDS011;3594;42.152;24.714;2023-07-31T12:33:07;7.78;;;5.13;;
7104;SDS011;3594;42.152;24.714;2023-07-31T12:35:38;7.40;;;5.40;;
7104;SDS011;3594;42.152;24.714;2023-07-31T12:38:09;7.68;;;5.00;;
7104;SDS011;3594;42.152;24.714;2023-07-31T12:40:38;6.10;;;4.35;;
7104;SDS011;3594;42.152;24.714;2023-07-31T12:43:05;4.72;;;3.45;;
7104;SDS011;3594;42.152;24.714;2023-07-31T12:45:31;5.07;;;3.60;;
7104;SDS011;3594;42.152;24.714;2023-07-31T12:47:57;4.43;;;3.47;;
7104;SDS011;3594;42.152;24.714;2023-07-31T12:50:24;5.25;;;4.00;;
7104;SDS011;3594;42.152;24.714;2023-07-31T12:52:50;6.95;;;4.03;;
7104;SDS011;3594;42.152;24.714;2023-07-31T12:55:16;4.60;;;3.70;;
7104;SDS011;3594;42.152;24.714;2023-07-31T12:57:43;6.10;;;4.10;;
7104;SDS011;3594;42.152;24.714;2023-07-31T13:00:08;5.95;;;4.22;;
7104;SDS011;3594;42.152;24.714;2023-07-31T13:02:34;5.65;;;3.80;;
7104;SDS011;3594;42.152;24.714;2023-07-31T13:05:00;5.80;;;4.38;;
7104;SDS011;3594;42.152;24.714;2023-07-31T13:07:26;4.97;;;4.00;;
7104;SDS011;3594;42.152;24.714;2023-07-31T13:09:51;6.47;;;4.30;;
7104;SDS011;3594;42.152;24.714;2023-07-31T13:12:17;7.65;;;4.30;;
7104;SDS011;3594;42.152;24.714;2023-07-31T13:14:42;5.47;;;3.78;;
7104;SDS011;3594;42.152;24.714;2023-07-31T13:17:08;7.60;;;4.53;;
7104;SDS011;3594;42.152;24.714;2023-07-31T13:19:33;6.65;;;3.88;;
7104;SDS011;3594;42.152;24.714;2023-07-31T13:21:58;5.47;;;3.88;;
7104;SDS011;3594;42.152;24.714;2023-07-31T13:24:24;6.95;;;4.50;;
7104;SDS011;3594;42.152;24.714;2023-07-31T13:26:49;5.93;;;4.05;;
7104;SDS011;3594;42.152;24.714;2023-07-31T13:29:14;7.20;;;4.10;;
7104;SDS011;3594;42.152;24.714;2023-07-31T13:31:40;7.53;;;4.03;;
7104;SDS011;3594;42.152;24.714;2023-07-31T13:34:05;8.50;;;4.35;;
7104;SDS011;3594;42.152;24.714;2023-07-31T13:36:31;7.80;;;5.13;;
7104;SDS011;3594;42.152;24.714;2023-07-31T13:38:59;7.78;;;5.25;;
7104;SDS011;3594;42.152;24.714;2023-07-31T13:41:24;7.18;;;4.97;;
7104;SDS011;3594;42.152;24.714;2023-07-31T13:43:50;6.45;;;4.75;;
7104;SDS011;3594;42.152;24.714;2023-07-31T13:46:15;8.43;;;5.15;;
7104;SDS011;3594;42.152;24.714;2023-07-31T13:48:41;6.43;;;4.60;;
7104;SDS011;3594;42.152;24.714;2023-07-31T13:51:06;7.13;;;4.93;;
7104;SDS011;3594;42.152;24.714;2023-07-31T13:53:31;8.18;;;4.82;;
7104;SDS011;3594;42.152;24.714;2023-07-31T13:55:57;6.32;;;4.93;;
7104;SDS011;3594;42.152;24.714;2023-07-31T13:58:22;7.95;;;5.20;;
7104;SDS011;3594;42.152;24.714;2023-07-31T14:00:48;8.15;;;4.97;;
7104;SDS011;3594;42.152;24.714;2023-07-31T14:03:13;7.55;;;5.25;;
7104;SDS011;3594;42.152;24.714;2023-07-31T14:05:39;7.53;;;5.18;;
7104;SDS011;3594;42.152;24.714;2023-07-31T14:08:04;6.50;;;4.80;;
7104;SDS011;3594;42.152;24.714;2023-07-31T14:10:30;6.63;;;4.78;;
7104;SDS011;3594;42.152;24.714;2023-07-31T14:12:55;6.85;;;4.82;;
7104;SDS011;3594;42.152;24.714;2023-07-31T14:15:21;8.35;;;5.10;;
7104;SDS011;3594;42.152;24.714;2023-07-31T14:17:46;6.40;;;4.53;;
7104;SDS011;3594;42.152;24.714;2023-07-31T14:20:12;9.13;;;5.10;;
7104;SDS011;3594;42.152;24.714;2023-07-31T14:22:37;6.30;;;4.82;;
7104;SDS011;3594;42.152;24.714;2023-07-31T14:25:03;8.02;;;4.93;;
7104;SDS011;3594;42.152;24.714;2023-07-31T14:27:29;7.85;;;4.78;;
7104;SDS011;3594;42.152;24.714;2023-07-31T14:29:55;6.20;;;4.63;;
7104;SDS011;3594;42.152;24.714;2023-07-31T14:32:21;6.88;;;4.95;;
7104;SDS011;3594;42.152;24.714;2023-07-31T14:34:50;8.10;;;5.05;;
7104;SDS011;3594;42.152;24.714;2023-07-31T14:37:16;7.53;;;4.97;;
7104;SDS011;3594;42.152;24.714;2023-07-31T14:39:41;7.63;;;4.90;;
7104;SDS011;3594;42.152;24.714;2023-07-31T14:42:06;6.50;;;4.95;;
7104;SDS011;3594;42.152;24.714;2023-07-31T14:44:32;6.05;;;4.38;;
7104;SDS011;3594;42.152;24.714;2023-07-31T14:46:57;8.32;;;4.57;;
7104;SDS011;3594;42.152;24.714;2023-07-31T14:49:23;6.55;;;4.43;;
7104;SDS011;3594;42.152;24.714;2023-07-31T14:51:48;7.47;;;4.95;;
7104;SDS011;3594;42.152;24.714;2023-07-31T14:54:14;6.43;;;4.38;;
7104;SDS011;3594;42.152;24.714;2023-07-31T14:56:39;7.88;;;4.78;;
7104;SDS011;3594;42.152;24.714;2023-07-31T14:59:04;6.18;;;4.75;;
7104;SDS011;3594;42.152;24.714;2023-07-31T15:01:30;6.70;;;4.38;;
7104;SDS011;3594;42.152;24.714;2023-07-31T15:03:56;6.53;;;4.75;;
7104;SDS011;3594;42.152;24.714;2023-07-31T15:06:21;6.63;;;4.97;;
7104;SDS011;3594;42.152;24.714;2023-07-31T15:08:46;6.28;;;4.60;;